Terminal Aerodrome Forecast
Issued by NWS

Home | Current Version | Previous Version | Graphics & Text | Print | Product List | Glossary On
Versions: 1 2 3 4 5 6 7 8 9 10 11 12 13 14 15 16 17 18 19
695
FTUS43 KICT 110539
TAFHUT
TAF
KHUT 110539Z 1106/1206 VRB05KT P6SM SCT250
     FM111300 03010KT P6SM SCT015
     FM111900 VRB04KT P6SM SCT250
     FM120500 31010KT P6SM SCT250=

USA.gov is the U.S. government's official web portal to all federal, state and local government web resources and services.